AMX726 MMTJ-MMMX
Flight info
| Callsign | AMX726 |
|---|---|
| Flight time | 2h 51m |
| Altitude | 35000 |
| Route | TEVIR2B TEVIR UT18 GOLFO UQ103 NABAS UT49 DGO UJ5 ZCL UT130 DARAN DARAN3A |
| Aircraft | B737/M-SDE2E3FGHIRWXY/LB1 |
Departure
| Time | 2026-04-22 02:49 |
|---|---|
| Airport | General Abelardo L. Rodriguez International Airport (MMTJ) |
Arrival
| Time | 2026-04-22 05:41 |
|---|---|
| Airport | Mexico City Benito Juárez International Airport (MMMX) |
| Time | Latitude | Longitude | Altitude | Speed | Heading |
|---|---|---|---|---|---|
| 2026-04-22 02:20 | 32.54435 | -116.97424 | 493 ft | 0 kts | 341° |
| 2026-04-22 02:24 | 32.54434 | -116.97424 | 498 ft | 0 kts | 341° |
| 2026-04-22 02:39 | 32.54431 | -116.97422 | 498 ft | 3 kts | 343° |
| 2026-04-22 02:39 | 32.54406 | -116.97419 | 496 ft | 4 kts | 19° |
| 2026-04-22 02:39 | 32.54386 | -116.97436 | 488 ft | 4 kts | 63° |
| 2026-04-22 02:40 | 32.54380 | -116.97464 | 491 ft | 2 kts | 98° |
| 2026-04-22 02:40 | 32.54381 | -116.97467 | 491 ft | 2 kts | 99° |
| 2026-04-22 02:42 | 32.54378 | -116.97448 | 490 ft | 6 kts | 101° |
| 2026-04-22 02:42 | 32.54340 | -116.97413 | 490 ft | 8 kts | 148° |
| 2026-04-22 02:42 | 32.54319 | -116.97347 | 497 ft | 10 kts | 99° |
| 2026-04-22 02:42 | 32.54308 | -116.97257 | 495 ft | 12 kts | 98° |
| 2026-04-22 02:43 | 32.54294 | -116.97152 | 492 ft | 14 kts | 99° |
| 2026-04-22 02:43 | 32.54277 | -116.97033 | 495 ft | 16 kts | 99° |
| 2026-04-22 02:43 | 32.54259 | -116.96900 | 497 ft | 17 kts | 99° |
| 2026-04-22 02:43 | 32.54240 | -116.96753 | 491 ft | 19 kts | 99° |
| 2026-04-22 02:44 | 32.54219 | -116.96594 | 497 ft | 20 kts | 98° |
| 2026-04-22 02:44 | 32.54197 | -116.96425 | 489 ft | 22 kts | 98° |
| 2026-04-22 02:44 | 32.54174 | -116.96249 | 497 ft | 21 kts | 98° |
| 2026-04-22 02:44 | 32.54152 | -116.96078 | 490 ft | 21 kts | 98° |
| 2026-04-22 02:45 | 32.54131 | -116.95912 | 497 ft | 20 kts | 98° |
| 2026-04-22 02:45 | 32.54110 | -116.95751 | 490 ft | 19 kts | 98° |
| 2026-04-22 02:45 | 32.54090 | -116.95595 | 495 ft | 19 kts | 98° |
| 2026-04-22 02:45 | 32.54072 | -116.95475 | 496 ft | 11 kts | 107° |
| 2026-04-22 02:46 | 32.54026 | -116.95433 | 490 ft | 5 kts | 180° |
| 2026-04-22 02:46 | 32.54004 | -116.95436 | 489 ft | 0 kts | 187° |
| 2026-04-22 02:46 | 32.54001 | -116.95436 | 489 ft | 1 kts | 187° |
| 2026-04-22 02:46 | 32.54000 | -116.95436 | 489 ft | 0 kts | 187° |
| 2026-04-22 02:47 | 32.54001 | -116.95436 | 489 ft | 0 kts | 187° |
| 2026-04-22 02:47 | 32.53975 | -116.95440 | 489 ft | 11 kts | 187° |
| 2026-04-22 02:47 | 32.53907 | -116.95460 | 487 ft | 7 kts | 240° |
| 2026-04-22 02:48 | 32.53908 | -116.95494 | 489 ft | 0 kts | 277° |
| 2026-04-22 02:48 | 32.53912 | -116.95537 | 485 ft | 26 kts | 277° |
| 2026-04-22 02:48 | 32.53971 | -116.95997 | 491 ft | 86 kts | 279° |
| 2026-04-22 02:48 | 32.54093 | -116.96906 | 491 ft | 135 kts | 279° |
| 2026-04-22 02:49 | 32.54256 | -116.98139 | 587 ft | 165 kts | 278° |
| 2026-04-22 02:49 | 32.54444 | -116.99516 | 1071 ft | 172 kts | 279° |
| 2026-04-22 02:49 | 32.54663 | -117.00967 | 1504 ft | 187 kts | 280° |
| 2026-04-22 02:49 | 32.54901 | -117.02542 | 1887 ft | 200 kts | 279° |
| 2026-04-22 02:50 | 32.55140 | -117.04181 | 2422 ft | 203 kts | 279° |
| 2026-04-22 02:50 | 32.55380 | -117.05854 | 3041 ft | 210 kts | 279° |
| 2026-04-22 02:50 | 32.55565 | -117.07607 | 3615 ft | 218 kts | 269° |
| 2026-04-22 02:50 | 32.55257 | -117.09367 | 4194 ft | 229 kts | 242° |
| 2026-04-22 02:51 | 32.54085 | -117.10759 | 4585 ft | 252 kts | 212° |
| 2026-04-22 02:51 | 32.52439 | -117.11474 | 5380 ft | 263 kts | 189° |
| 2026-04-22 02:51 | 32.50615 | -117.11174 | 6268 ft | 273 kts | 159° |
| 2026-04-22 02:51 | 32.49097 | -117.09781 | 7103 ft | 284 kts | 131° |
| 2026-04-22 02:52 | 32.48008 | -117.07802 | 7882 ft | 292 kts | 123° |
| 2026-04-22 02:52 | 32.47050 | -117.05651 | 8610 ft | 298 kts | 120° |
| 2026-04-22 02:52 | 32.46114 | -117.03435 | 9367 ft | 303 kts | 120° |
| 2026-04-22 02:52 | 32.45166 | -117.01181 | 10113 ft | 308 kts | 121° |
| 2026-04-22 02:53 | 32.44177 | -116.98858 | 10474 ft | 327 kts | 121° |
| 2026-04-22 02:53 | 32.43101 | -116.96372 | 10651 ft | 350 kts | 121° |
| 2026-04-22 02:53 | 32.41957 | -116.93749 | 11004 ft | 365 kts | 121° |
| 2026-04-22 02:53 | 32.40790 | -116.91086 | 11557 ft | 373 kts | 121° |
| 2026-04-22 02:54 | 32.39590 | -116.88359 | 12293 ft | 375 kts | 121° |
| 2026-04-22 02:54 | 32.38374 | -116.85606 | 12952 ft | 381 kts | 121° |
| 2026-04-22 02:54 | 32.37130 | -116.82800 | 13584 ft | 387 kts | 121° |
| 2026-04-22 02:54 | 32.35871 | -116.79968 | 14235 ft | 391 kts | 121° |
| 2026-04-22 02:55 | 32.34596 | -116.77107 | 14893 ft | 395 kts | 122° |
| 2026-04-22 02:55 | 32.33310 | -116.74221 | 15574 ft | 398 kts | 122° |
| 2026-04-22 02:55 | 32.32012 | -116.71313 | 16255 ft | 402 kts | 122° |
| 2026-04-22 02:55 | 32.30717 | -116.68413 | 16905 ft | 406 kts | 122° |
| 2026-04-22 02:56 | 32.29392 | -116.65450 | 17608 ft | 410 kts | 122° |
| 2026-04-22 02:56 | 32.28050 | -116.62451 | 18256 ft | 415 kts | 122° |
| 2026-04-22 02:56 | 32.26695 | -116.59426 | 18838 ft | 419 kts | 122° |
| 2026-04-22 02:56 | 32.25321 | -116.56364 | 19359 ft | 423 kts | 122° |
| 2026-04-22 02:57 | 32.23937 | -116.53277 | 19919 ft | 427 kts | 122° |
| 2026-04-22 02:57 | 32.22543 | -116.50170 | 20469 ft | 431 kts | 122° |
| 2026-04-22 02:57 | 32.21133 | -116.47031 | 21025 ft | 434 kts | 122° |
| 2026-04-22 02:57 | 32.19710 | -116.43865 | 21570 ft | 438 kts | 122° |
| 2026-04-22 02:58 | 32.18274 | -116.40676 | 22099 ft | 442 kts | 122° |
| 2026-04-22 02:58 | 32.16825 | -116.37458 | 22606 ft | 446 kts | 122° |
| 2026-04-22 02:58 | 32.15360 | -116.34209 | 23101 ft | 450 kts | 122° |
| 2026-04-22 02:58 | 32.13902 | -116.30980 | 23606 ft | 454 kts | 122° |
| 2026-04-22 02:59 | 32.12414 | -116.27684 | 24028 ft | 457 kts | 122° |
| 2026-04-22 02:59 | 32.10912 | -116.24360 | 24455 ft | 460 kts | 122° |
| 2026-04-22 02:59 | 32.09408 | -116.21035 | 24967 ft | 460 kts | 122° |
| 2026-04-22 02:59 | 32.07900 | -116.17701 | 25426 ft | 462 kts | 122° |
| 2026-04-22 03:00 | 32.06381 | -116.14351 | 25830 ft | 465 kts | 123° |
| 2026-04-22 03:00 | 32.04849 | -116.10975 | 26210 ft | 469 kts | 123° |
| 2026-04-22 03:00 | 32.03308 | -116.07581 | 26619 ft | 471 kts | 123° |
| 2026-04-22 03:00 | 32.01757 | -116.04169 | 27037 ft | 474 kts | 123° |
| 2026-04-22 03:01 | 32.00197 | -116.00739 | 27401 ft | 476 kts | 123° |
| 2026-04-22 03:01 | 31.98647 | -115.97335 | 27778 ft | 479 kts | 123° |
| 2026-04-22 03:01 | 31.97070 | -115.93872 | 28158 ft | 481 kts | 124° |
| 2026-04-22 03:01 | 31.95483 | -115.90392 | 28542 ft | 484 kts | 124° |
| 2026-04-22 03:02 | 31.93888 | -115.86897 | 28870 ft | 486 kts | 124° |
| 2026-04-22 03:02 | 31.92283 | -115.83384 | 29220 ft | 488 kts | 124° |
| 2026-04-22 03:02 | 31.90669 | -115.79861 | 29548 ft | 490 kts | 124° |
| 2026-04-22 03:02 | 31.88941 | -115.76403 | 29817 ft | 490 kts | 128° |
| 2026-04-22 03:03 | 31.87082 | -115.73044 | 30167 ft | 491 kts | 129° |
| 2026-04-22 03:03 | 31.85188 | -115.69753 | 30420 ft | 493 kts | 130° |
| 2026-04-22 03:03 | 31.83253 | -115.66410 | 30687 ft | 494 kts | 130° |
| 2026-04-22 03:03 | 31.81330 | -115.63057 | 30908 ft | 495 kts | 129° |
| 2026-04-22 03:04 | 31.79422 | -115.59687 | 31282 ft | 495 kts | 128° |
| 2026-04-22 03:04 | 31.77536 | -115.56324 | 31733 ft | 491 kts | 128° |
| 2026-04-22 03:04 | 31.75663 | -115.52974 | 32180 ft | 489 kts | 128° |
| 2026-04-22 03:04 | 31.73800 | -115.49643 | 32508 ft | 488 kts | 128° |
| 2026-04-22 03:05 | 31.71934 | -115.46314 | 32849 ft | 487 kts | 128° |
| 2026-04-22 03:05 | 31.70074 | -115.42998 | 33242 ft | 485 kts | 128° |
| 2026-04-22 03:05 | 31.68221 | -115.39701 | 33648 ft | 483 kts | 128° |
| 2026-04-22 03:05 | 31.66396 | -115.36455 | 33964 ft | 482 kts | 128° |
| 2026-04-22 03:06 | 31.64549 | -115.33176 | 34249 ft | 481 kts | 128° |
| 2026-04-22 03:06 | 31.62702 | -115.29902 | 34443 ft | 482 kts | 128° |
| 2026-04-22 03:06 | 31.60844 | -115.26618 | 34575 ft | 484 kts | 128° |
| 2026-04-22 03:06 | 31.58979 | -115.23325 | 34805 ft | 484 kts | 129° |
| 2026-04-22 03:07 | 31.57116 | -115.20037 | 34965 ft | 486 kts | 129° |
| 2026-04-22 03:07 | 31.53337 | -115.13378 | 34944 ft | 491 kts | 129° |
| 2026-04-22 03:08 | 31.49572 | -115.06740 | 34936 ft | 485 kts | 129° |
| 2026-04-22 03:08 | 31.45868 | -115.00223 | 34933 ft | 483 kts | 129° |
| 2026-04-22 03:09 | 31.42146 | -114.93691 | 34935 ft | 482 kts | 129° |
| 2026-04-22 03:09 | 31.38427 | -114.87176 | 34929 ft | 481 kts | 129° |
| 2026-04-22 03:10 | 31.34702 | -114.80662 | 34948 ft | 482 kts | 129° |
| 2026-04-22 03:10 | 31.30984 | -114.74170 | 34948 ft | 485 kts | 129° |
| 2026-04-22 03:11 | 31.27221 | -114.67610 | 34947 ft | 487 kts | 129° |
| 2026-04-22 03:11 | 31.23436 | -114.61020 | 34942 ft | 489 kts | 129° |
| 2026-04-22 03:12 | 31.19637 | -114.54417 | 34923 ft | 491 kts | 129° |
| 2026-04-22 03:12 | 31.13914 | -114.44490 | 34943 ft | 492 kts | 129° |
| 2026-04-22 03:13 | 31.10113 | -114.37909 | 34935 ft | 492 kts | 129° |
| 2026-04-22 03:13 | 31.06255 | -114.31327 | 34935 ft | 490 kts | 132° |
| 2026-04-22 03:14 | 31.02103 | -114.25059 | 34946 ft | 487 kts | 134° |
| 2026-04-22 03:14 | 30.97854 | -114.18913 | 34937 ft | 486 kts | 135° |
| 2026-04-22 03:15 | 30.93629 | -114.12761 | 34944 ft | 486 kts | 134° |
| 2026-04-22 03:15 | 30.89461 | -114.06638 | 34949 ft | 485 kts | 134° |
| 2026-04-22 03:16 | 30.85279 | -114.00475 | 34946 ft | 485 kts | 134° |
| 2026-04-22 03:16 | 30.81092 | -113.94314 | 34940 ft | 485 kts | 134° |
| 2026-04-22 03:17 | 30.76900 | -113.88157 | 34950 ft | 486 kts | 134° |
| 2026-04-22 03:17 | 30.72697 | -113.81996 | 34958 ft | 487 kts | 134° |
| 2026-04-22 03:18 | 30.68473 | -113.75815 | 34954 ft | 489 kts | 134° |
| 2026-04-22 03:18 | 30.64265 | -113.69666 | 34957 ft | 490 kts | 134° |
| 2026-04-22 03:19 | 30.60015 | -113.63465 | 34943 ft | 491 kts | 134° |
| 2026-04-22 03:19 | 30.55758 | -113.57263 | 34957 ft | 492 kts | 134° |
| 2026-04-22 03:20 | 30.51494 | -113.51060 | 34958 ft | 492 kts | 134° |
| 2026-04-22 03:20 | 30.47217 | -113.44850 | 34960 ft | 493 kts | 134° |
| 2026-04-22 03:21 | 30.42940 | -113.38648 | 34934 ft | 492 kts | 134° |
| 2026-04-22 03:21 | 30.38696 | -113.32503 | 34957 ft | 491 kts | 134° |
| 2026-04-22 03:22 | 30.34425 | -113.26330 | 34965 ft | 491 kts | 134° |
| 2026-04-22 03:22 | 30.30149 | -113.20159 | 34964 ft | 491 kts | 134° |
| 2026-04-22 03:23 | 30.25877 | -113.14004 | 34968 ft | 491 kts | 134° |
| 2026-04-22 03:23 | 30.21602 | -113.07852 | 34944 ft | 490 kts | 134° |
| 2026-04-22 03:24 | 30.17354 | -113.01750 | 34965 ft | 490 kts | 134° |
| 2026-04-22 03:24 | 30.13077 | -112.95616 | 34975 ft | 490 kts | 134° |
| 2026-04-22 03:25 | 30.08792 | -112.89479 | 34977 ft | 491 kts | 134° |
| 2026-04-22 03:25 | 30.04498 | -112.83340 | 34982 ft | 491 kts | 134° |
| 2026-04-22 03:26 | 30.00201 | -112.77205 | 34961 ft | 492 kts | 134° |
| 2026-04-22 03:26 | 29.95899 | -112.71072 | 34980 ft | 492 kts | 134° |
| 2026-04-22 03:27 | 29.91618 | -112.64978 | 34991 ft | 493 kts | 134° |
| 2026-04-22 03:27 | 29.87298 | -112.58839 | 34990 ft | 493 kts | 134° |
| 2026-04-22 03:28 | 29.82970 | -112.52697 | 34991 ft | 494 kts | 134° |
| 2026-04-22 03:28 | 29.78632 | -112.46551 | 34976 ft | 494 kts | 134° |
| 2026-04-22 03:29 | 29.74294 | -112.40413 | 34988 ft | 494 kts | 134° |
| 2026-04-22 03:29 | 29.69979 | -112.34318 | 34999 ft | 495 kts | 134° |
| 2026-04-22 03:30 | 29.65630 | -112.28184 | 34992 ft | 495 kts | 134° |
| 2026-04-22 03:30 | 29.61273 | -112.22047 | 34992 ft | 495 kts | 134° |
| 2026-04-22 03:31 | 29.56915 | -112.15918 | 34970 ft | 495 kts | 134° |
| 2026-04-22 03:31 | 29.52582 | -112.09834 | 34997 ft | 495 kts | 134° |
| 2026-04-22 03:32 | 29.48218 | -112.03716 | 34990 ft | 496 kts | 134° |
| 2026-04-22 03:32 | 29.43844 | -111.97593 | 34987 ft | 496 kts | 134° |
| 2026-04-22 03:33 | 29.39470 | -111.91479 | 34984 ft | 496 kts | 134° |
| 2026-04-22 03:33 | 29.35094 | -111.85371 | 34978 ft | 495 kts | 134° |
| 2026-04-22 03:34 | 29.30744 | -111.79309 | 34992 ft | 496 kts | 134° |
| 2026-04-22 03:34 | 29.26360 | -111.73209 | 34995 ft | 496 kts | 134° |
| 2026-04-22 03:35 | 29.21970 | -111.67109 | 34988 ft | 497 kts | 134° |
| 2026-04-22 03:35 | 29.17572 | -111.61007 | 34990 ft | 497 kts | 134° |
| 2026-04-22 03:36 | 29.13202 | -111.54953 | 34976 ft | 497 kts | 134° |
| 2026-04-22 03:36 | 29.08798 | -111.48859 | 34989 ft | 497 kts | 134° |
| 2026-04-22 03:37 | 29.04387 | -111.42767 | 35001 ft | 498 kts | 134° |
| 2026-04-22 03:37 | 28.99971 | -111.36677 | 35003 ft | 498 kts | 134° |
| 2026-04-22 03:38 | 28.95573 | -111.30619 | 35006 ft | 499 kts | 134° |
| 2026-04-22 03:38 | 28.91142 | -111.24524 | 35007 ft | 499 kts | 134° |
| 2026-04-22 03:39 | 28.86707 | -111.18434 | 35007 ft | 499 kts | 134° |
| 2026-04-22 03:39 | 28.82265 | -111.12341 | 35010 ft | 499 kts | 134° |
| 2026-04-22 03:40 | 28.77825 | -111.06261 | 34998 ft | 499 kts | 134° |
| 2026-04-22 03:40 | 28.73416 | -111.00231 | 35002 ft | 498 kts | 134° |
| 2026-04-22 03:41 | 28.68981 | -110.94182 | 34993 ft | 497 kts | 134° |
| 2026-04-22 03:41 | 28.64549 | -110.88146 | 35004 ft | 497 kts | 134° |
| 2026-04-22 03:42 | 28.60110 | -110.82108 | 34998 ft | 497 kts | 134° |
| 2026-04-22 03:42 | 28.55665 | -110.76070 | 35008 ft | 498 kts | 134° |
| 2026-04-22 03:43 | 28.51244 | -110.70068 | 35016 ft | 499 kts | 134° |
| 2026-04-22 03:43 | 28.46788 | -110.64030 | 34995 ft | 498 kts | 134° |
| 2026-04-22 03:44 | 28.42334 | -110.58005 | 35005 ft | 498 kts | 134° |
| 2026-04-22 03:44 | 28.37874 | -110.51979 | 35022 ft | 498 kts | 134° |
| 2026-04-22 03:45 | 28.34162 | -110.46971 | 35028 ft | 499 kts | 134° |
| 2026-04-22 03:45 | 28.28960 | -110.39963 | 35013 ft | 500 kts | 134° |
| 2026-04-22 03:46 | 28.24479 | -110.33933 | 34984 ft | 500 kts | 134° |
| 2026-04-22 03:46 | 28.19998 | -110.27914 | 35012 ft | 500 kts | 134° |
| 2026-04-22 03:47 | 28.16271 | -110.22914 | 35020 ft | 500 kts | 134° |
| 2026-04-22 03:47 | 28.11775 | -110.16891 | 35018 ft | 500 kts | 134° |
| 2026-04-22 03:48 | 28.07279 | -110.10875 | 35028 ft | 501 kts | 134° |
| 2026-04-22 03:48 | 28.02776 | -110.04858 | 35010 ft | 501 kts | 134° |
| 2026-04-22 03:49 | 27.98272 | -109.98849 | 35016 ft | 500 kts | 134° |
| 2026-04-22 03:49 | 27.93803 | -109.92895 | 35017 ft | 499 kts | 134° |
| 2026-04-22 03:50 | 27.89301 | -109.86906 | 35015 ft | 500 kts | 134° |
| 2026-04-22 03:50 | 27.84797 | -109.80922 | 35021 ft | 500 kts | 134° |
| 2026-04-22 03:51 | 27.80290 | -109.74943 | 35024 ft | 500 kts | 134° |
| 2026-04-22 03:51 | 27.75772 | -109.68958 | 35017 ft | 500 kts | 134° |
| 2026-04-22 03:52 | 27.71284 | -109.63021 | 35021 ft | 501 kts | 134° |
| 2026-04-22 03:52 | 27.66761 | -109.57044 | 35031 ft | 501 kts | 134° |
| 2026-04-22 03:53 | 27.62233 | -109.51072 | 35030 ft | 501 kts | 134° |
| 2026-04-22 03:53 | 27.57706 | -109.45106 | 35041 ft | 501 kts | 134° |
| 2026-04-22 03:54 | 27.53172 | -109.39142 | 35027 ft | 501 kts | 134° |
| 2026-04-22 03:54 | 27.48669 | -109.33227 | 35030 ft | 501 kts | 134° |
| 2026-04-22 03:55 | 27.44125 | -109.27265 | 35029 ft | 502 kts | 134° |
| 2026-04-22 03:55 | 27.39580 | -109.21309 | 35028 ft | 501 kts | 134° |
| 2026-04-22 03:56 | 27.35036 | -109.15363 | 35024 ft | 501 kts | 134° |
| 2026-04-22 03:56 | 27.30521 | -109.09464 | 35029 ft | 501 kts | 134° |
| 2026-04-22 03:57 | 27.25971 | -109.03527 | 35037 ft | 501 kts | 134° |
| 2026-04-22 03:57 | 27.21417 | -108.97593 | 35053 ft | 502 kts | 134° |
| 2026-04-22 03:58 | 27.16854 | -108.91656 | 35047 ft | 502 kts | 134° |
| 2026-04-22 03:58 | 27.12287 | -108.85724 | 35050 ft | 502 kts | 134° |
| 2026-04-22 03:59 | 27.07719 | -108.79793 | 35049 ft | 502 kts | 134° |
| 2026-04-22 03:59 | 27.03185 | -108.73915 | 35042 ft | 501 kts | 134° |
| 2026-04-22 04:00 | 26.98626 | -108.68016 | 35044 ft | 501 kts | 135° |
| 2026-04-22 04:00 | 26.94058 | -108.62115 | 35044 ft | 501 kts | 134° |
| 2026-04-22 04:01 | 26.89487 | -108.56215 | 35052 ft | 501 kts | 134° |
| 2026-04-22 04:01 | 26.84945 | -108.50359 | 35048 ft | 502 kts | 135° |
| 2026-04-22 04:02 | 26.80365 | -108.44461 | 35024 ft | 501 kts | 135° |
| 2026-04-22 04:02 | 26.75785 | -108.38574 | 35047 ft | 501 kts | 134° |
| 2026-04-22 04:03 | 26.71209 | -108.32699 | 35061 ft | 501 kts | 135° |
| 2026-04-22 04:03 | 26.66657 | -108.26861 | 35058 ft | 501 kts | 135° |
| 2026-04-22 04:04 | 26.62072 | -108.20988 | 35058 ft | 502 kts | 135° |
| 2026-04-22 04:04 | 26.57542 | -108.15054 | 35061 ft | 504 kts | 130° |
| 2026-04-22 04:05 | 26.53436 | -108.08707 | 35070 ft | 505 kts | 128° |
| 2026-04-22 04:05 | 26.49426 | -108.02281 | 35084 ft | 504 kts | 128° |
| 2026-04-22 04:06 | 26.45379 | -107.95891 | 35089 ft | 503 kts | 128° |
| 2026-04-22 04:06 | 26.41330 | -107.89587 | 35099 ft | 503 kts | 129° |
| 2026-04-22 04:07 | 26.37239 | -107.83248 | 35102 ft | 504 kts | 129° |
| 2026-04-22 04:07 | 26.33148 | -107.76914 | 35075 ft | 503 kts | 129° |
| 2026-04-22 04:08 | 26.29058 | -107.70586 | 35110 ft | 503 kts | 129° |
| 2026-04-22 04:08 | 26.24966 | -107.64263 | 35104 ft | 503 kts | 129° |
| 2026-04-22 04:09 | 26.20902 | -107.57991 | 35112 ft | 503 kts | 129° |
| 2026-04-22 04:09 | 26.16809 | -107.51683 | 35106 ft | 502 kts | 129° |
| 2026-04-22 04:10 | 26.12711 | -107.45377 | 35119 ft | 503 kts | 129° |
| 2026-04-22 04:10 | 26.08612 | -107.39077 | 35111 ft | 503 kts | 129° |
| 2026-04-22 04:11 | 26.04512 | -107.32784 | 35102 ft | 502 kts | 129° |
| 2026-04-22 04:11 | 26.00413 | -107.26501 | 35116 ft | 501 kts | 129° |
| 2026-04-22 04:12 | 25.96354 | -107.20286 | 35124 ft | 500 kts | 129° |
| 2026-04-22 04:12 | 25.92268 | -107.14040 | 35142 ft | 500 kts | 129° |
| 2026-04-22 04:13 | 25.88178 | -107.07795 | 35136 ft | 500 kts | 129° |
| 2026-04-22 04:13 | 25.84090 | -107.01546 | 35144 ft | 501 kts | 129° |
| 2026-04-22 04:14 | 25.80006 | -106.95282 | 35152 ft | 502 kts | 129° |
| 2026-04-22 04:14 | 25.75942 | -106.89054 | 35175 ft | 501 kts | 129° |
| 2026-04-22 04:15 | 25.71850 | -106.82796 | 35162 ft | 501 kts | 129° |
| 2026-04-22 04:15 | 25.67763 | -106.76554 | 35184 ft | 500 kts | 129° |
| 2026-04-22 04:16 | 25.61633 | -106.67208 | 35177 ft | 499 kts | 129° |
| 2026-04-22 04:17 | 25.57550 | -106.60993 | 35179 ft | 499 kts | 129° |
| 2026-04-22 04:17 | 25.53465 | -106.54785 | 35159 ft | 499 kts | 129° |
| 2026-04-22 04:18 | 25.49409 | -106.48627 | 35181 ft | 498 kts | 129° |
| 2026-04-22 04:18 | 25.45321 | -106.42427 | 35184 ft | 498 kts | 129° |
| 2026-04-22 04:19 | 25.41228 | -106.36240 | 35175 ft | 498 kts | 130° |
| 2026-04-22 04:19 | 25.37075 | -106.30113 | 35196 ft | 498 kts | 130° |
| 2026-04-22 04:20 | 25.32900 | -106.23999 | 35154 ft | 498 kts | 130° |
| 2026-04-22 04:20 | 25.28738 | -106.17889 | 35184 ft | 498 kts | 130° |
| 2026-04-22 04:21 | 25.24596 | -106.11806 | 35171 ft | 499 kts | 130° |
| 2026-04-22 04:21 | 25.20424 | -106.05685 | 35187 ft | 499 kts | 130° |
| 2026-04-22 04:22 | 25.16245 | -105.99561 | 35190 ft | 499 kts | 130° |
| 2026-04-22 04:22 | 25.12059 | -105.93435 | 35184 ft | 500 kts | 130° |
| 2026-04-22 04:23 | 25.07888 | -105.87338 | 35147 ft | 502 kts | 130° |
| 2026-04-22 04:23 | 25.03684 | -105.81197 | 35161 ft | 502 kts | 130° |
| 2026-04-22 04:24 | 24.99481 | -105.75054 | 35149 ft | 502 kts | 130° |
| 2026-04-22 04:24 | 24.95280 | -105.68917 | 35155 ft | 502 kts | 130° |
| 2026-04-22 04:25 | 24.91073 | -105.62781 | 35160 ft | 502 kts | 131° |
| 2026-04-22 04:25 | 24.86857 | -105.56640 | 35154 ft | 503 kts | 131° |
| 2026-04-22 04:26 | 24.82661 | -105.50537 | 35145 ft | 503 kts | 131° |
| 2026-04-22 04:26 | 24.78436 | -105.44397 | 35146 ft | 503 kts | 131° |
| 2026-04-22 04:27 | 24.74207 | -105.38262 | 35145 ft | 504 kts | 131° |
| 2026-04-22 04:27 | 24.69970 | -105.32121 | 35154 ft | 504 kts | 131° |
| 2026-04-22 04:28 | 24.65747 | -105.26007 | 35149 ft | 507 kts | 131° |
| 2026-04-22 04:28 | 24.61478 | -105.19843 | 35128 ft | 507 kts | 131° |
| 2026-04-22 04:29 | 24.57190 | -105.13673 | 35147 ft | 508 kts | 131° |
| 2026-04-22 04:29 | 24.52898 | -105.07502 | 35133 ft | 508 kts | 131° |
| 2026-04-22 04:30 | 24.48608 | -105.01338 | 35128 ft | 508 kts | 131° |
| 2026-04-22 04:30 | 24.44347 | -104.95222 | 35122 ft | 507 kts | 131° |
| 2026-04-22 04:31 | 24.40062 | -104.89079 | 35102 ft | 506 kts | 131° |
| 2026-04-22 04:31 | 24.35783 | -104.82953 | 35121 ft | 506 kts | 131° |
| 2026-04-22 04:32 | 24.31503 | -104.76835 | 35102 ft | 505 kts | 131° |
| 2026-04-22 04:32 | 24.27254 | -104.70768 | 35102 ft | 504 kts | 132° |
| 2026-04-22 04:33 | 24.22987 | -104.64682 | 35109 ft | 503 kts | 132° |
| 2026-04-22 04:33 | 24.18725 | -104.58610 | 35099 ft | 502 kts | 132° |
| 2026-04-22 04:34 | 24.14466 | -104.52549 | 35098 ft | 502 kts | 132° |
| 2026-04-22 04:34 | 24.10287 | -104.46485 | 35082 ft | 503 kts | 131° |
| 2026-04-22 04:35 | 24.06147 | -104.40316 | 35103 ft | 503 kts | 130° |
| 2026-04-22 04:35 | 24.02004 | -104.34150 | 35084 ft | 503 kts | 131° |
| 2026-04-22 04:36 | 23.97850 | -104.28006 | 35087 ft | 503 kts | 131° |
| 2026-04-22 04:36 | 23.93681 | -104.21859 | 35093 ft | 503 kts | 131° |
| 2026-04-22 04:37 | 23.89539 | -104.15757 | 35098 ft | 503 kts | 131° |
| 2026-04-22 04:37 | 23.85365 | -104.09614 | 35100 ft | 503 kts | 131° |
| 2026-04-22 04:38 | 23.81191 | -104.03478 | 35110 ft | 503 kts | 131° |
| 2026-04-22 04:38 | 23.77020 | -103.97354 | 35303 ft | 500 kts | 131° |
| 2026-04-22 04:38 | 23.74973 | -103.94350 | 35489 ft | 501 kts | 131° |
| 2026-04-22 04:39 | 23.72891 | -103.91297 | 35677 ft | 502 kts | 131° |
| 2026-04-22 04:39 | 23.70806 | -103.88244 | 35860 ft | 502 kts | 131° |
| 2026-04-22 04:39 | 23.68725 | -103.85188 | 36059 ft | 501 kts | 131° |
| 2026-04-22 04:40 | 23.64582 | -103.79068 | 36116 ft | 501 kts | 131° |
| 2026-04-22 04:40 | 23.60436 | -103.73014 | 36132 ft | 496 kts | 132° |
| 2026-04-22 04:41 | 23.56321 | -103.67069 | 36128 ft | 493 kts | 132° |
| 2026-04-22 04:41 | 23.52201 | -103.61105 | 36140 ft | 492 kts | 132° |
| 2026-04-22 04:42 | 23.48104 | -103.55145 | 36139 ft | 491 kts | 132° |
| 2026-04-22 04:42 | 23.44011 | -103.49174 | 36132 ft | 492 kts | 132° |
| 2026-04-22 04:43 | 23.39931 | -103.43231 | 36136 ft | 495 kts | 132° |
| 2026-04-22 04:43 | 23.35795 | -103.37216 | 36141 ft | 498 kts | 132° |
| 2026-04-22 04:44 | 23.31636 | -103.31177 | 36135 ft | 500 kts | 132° |
| 2026-04-22 04:44 | 23.27451 | -103.25106 | 36142 ft | 503 kts | 132° |
| 2026-04-22 04:45 | 23.23293 | -103.19079 | 36126 ft | 504 kts | 132° |
| 2026-04-22 04:45 | 23.19109 | -103.13022 | 36099 ft | 504 kts | 132° |
| 2026-04-22 04:46 | 23.14912 | -103.06952 | 36123 ft | 501 kts | 132° |
| 2026-04-22 04:46 | 23.10723 | -103.00915 | 36127 ft | 499 kts | 133° |
| 2026-04-22 04:47 | 23.06552 | -102.94916 | 36167 ft | 497 kts | 132° |
| 2026-04-22 04:47 | 23.02394 | -102.88941 | 36215 ft | 494 kts | 133° |
| 2026-04-22 04:48 | 22.98285 | -102.83041 | 36277 ft | 492 kts | 133° |
| 2026-04-22 04:48 | 22.94159 | -102.77122 | 36332 ft | 491 kts | 133° |
| 2026-04-22 04:49 | 22.90021 | -102.71243 | 36325 ft | 487 kts | 136° |
| 2026-04-22 04:49 | 22.85055 | -102.66496 | 36341 ft | 469 kts | 154° |
| 2026-04-22 04:50 | 22.79604 | -102.62682 | 36321 ft | 471 kts | 154° |
| 2026-04-22 04:50 | 22.74110 | -102.58788 | 36252 ft | 473 kts | 154° |
| 2026-04-22 04:51 | 22.68608 | -102.54842 | 36171 ft | 475 kts | 153° |
| 2026-04-22 04:51 | 22.63092 | -102.50873 | 36122 ft | 476 kts | 153° |
| 2026-04-22 04:52 | 22.57567 | -102.46901 | 36041 ft | 477 kts | 153° |
| 2026-04-22 04:52 | 22.52077 | -102.42960 | 36043 ft | 477 kts | 153° |
| 2026-04-22 04:53 | 22.46543 | -102.38992 | 36037 ft | 476 kts | 153° |
| 2026-04-22 04:53 | 22.41030 | -102.35042 | 36035 ft | 475 kts | 153° |
| 2026-04-22 04:54 | 22.35530 | -102.31107 | 35997 ft | 473 kts | 153° |
| 2026-04-22 04:54 | 22.30042 | -102.27185 | 35971 ft | 473 kts | 153° |
| 2026-04-22 04:55 | 22.24606 | -102.23302 | 35978 ft | 471 kts | 153° |
| 2026-04-22 04:55 | 22.19154 | -102.19413 | 35990 ft | 469 kts | 153° |
| 2026-04-22 04:56 | 22.13704 | -102.15529 | 35974 ft | 469 kts | 153° |
| 2026-04-22 04:56 | 22.08270 | -102.11659 | 35963 ft | 467 kts | 153° |
| 2026-04-22 04:57 | 22.02887 | -102.07830 | 35960 ft | 467 kts | 153° |
| 2026-04-22 04:57 | 21.97472 | -102.03981 | 35920 ft | 466 kts | 152° |
| 2026-04-22 04:58 | 21.92076 | -102.00149 | 35939 ft | 464 kts | 152° |
| 2026-04-22 04:58 | 21.86694 | -101.96331 | 35950 ft | 463 kts | 152° |
| 2026-04-22 04:59 | 21.81323 | -101.92524 | 35956 ft | 462 kts | 152° |
| 2026-04-22 04:59 | 21.75990 | -101.88747 | 35961 ft | 462 kts | 152° |
| 2026-04-22 05:00 | 21.70624 | -101.84950 | 35962 ft | 461 kts | 152° |
| 2026-04-22 05:00 | 21.65261 | -101.81158 | 35960 ft | 461 kts | 152° |
| 2026-04-22 05:01 | 21.59896 | -101.77370 | 35978 ft | 462 kts | 151° |
| 2026-04-22 05:01 | 21.55057 | -101.72795 | 35990 ft | 474 kts | 133° |
| 2026-04-22 05:02 | 21.51333 | -101.66889 | 35993 ft | 480 kts | 127° |
| 2026-04-22 05:02 | 21.47715 | -101.60857 | 35987 ft | 481 kts | 127° |
| 2026-04-22 05:03 | 21.44053 | -101.54849 | 35995 ft | 481 kts | 127° |
| 2026-04-22 05:03 | 21.40358 | -101.48853 | 35996 ft | 482 kts | 127° |
| 2026-04-22 05:04 | 21.36682 | -101.42909 | 35991 ft | 481 kts | 127° |
| 2026-04-22 05:04 | 21.32987 | -101.36936 | 35996 ft | 479 kts | 127° |
| 2026-04-22 05:05 | 21.29305 | -101.30987 | 36003 ft | 478 kts | 127° |
| 2026-04-22 05:05 | 21.25636 | -101.25065 | 36004 ft | 476 kts | 127° |
| 2026-04-22 05:06 | 21.21998 | -101.19200 | 35990 ft | 475 kts | 127° |
| 2026-04-22 05:06 | 21.18349 | -101.13322 | 35991 ft | 473 kts | 127° |
| 2026-04-22 05:07 | 21.14710 | -101.07467 | 36004 ft | 471 kts | 127° |
| 2026-04-22 05:07 | 21.11077 | -101.01627 | 35999 ft | 471 kts | 128° |
| 2026-04-22 05:08 | 21.07471 | -100.95838 | 35995 ft | 470 kts | 128° |
| 2026-04-22 05:08 | 21.03628 | -100.90204 | 36005 ft | 468 kts | 131° |
| 2026-04-22 05:09 | 20.99628 | -100.84709 | 36000 ft | 468 kts | 132° |
| 2026-04-22 05:09 | 20.95622 | -100.79195 | 36000 ft | 470 kts | 131° |
| 2026-04-22 05:10 | 20.91629 | -100.73646 | 36005 ft | 472 kts | 131° |
| 2026-04-22 05:10 | 20.87661 | -100.68111 | 35999 ft | 473 kts | 131° |
| 2026-04-22 05:11 | 20.83656 | -100.62525 | 36003 ft | 474 kts | 131° |
| 2026-04-22 05:11 | 20.79644 | -100.56938 | 35999 ft | 474 kts | 130° |
| 2026-04-22 05:12 | 20.75619 | -100.51339 | 36000 ft | 475 kts | 130° |
| 2026-04-22 05:12 | 20.71592 | -100.45742 | 35999 ft | 475 kts | 130° |
| 2026-04-22 05:13 | 20.67596 | -100.40196 | 36007 ft | 474 kts | 130° |
| 2026-04-22 05:13 | 20.63576 | -100.34621 | 35997 ft | 474 kts | 130° |
| 2026-04-22 05:14 | 20.59556 | -100.29051 | 36378 ft | 473 kts | 130° |
| 2026-04-22 05:14 | 20.55544 | -100.23499 | 36394 ft | 472 kts | 130° |
| 2026-04-22 05:15 | 20.51563 | -100.17994 | 36379 ft | 472 kts | 131° |
| 2026-04-22 05:15 | 20.47522 | -100.12416 | 35652 ft | 482 kts | 131° |
| 2026-04-22 05:15 | 20.45472 | -100.09588 | 35030 ft | 481 kts | 131° |
| 2026-04-22 05:16 | 20.43421 | -100.06757 | 34277 ft | 483 kts | 130° |
| 2026-04-22 05:16 | 20.41361 | -100.03915 | 33458 ft | 485 kts | 130° |
| 2026-04-22 05:16 | 20.39312 | -100.01088 | 32911 ft | 479 kts | 130° |
| 2026-04-22 05:16 | 20.37280 | -99.98287 | 32253 ft | 476 kts | 130° |
| 2026-04-22 05:17 | 20.35288 | -99.95542 | 31746 ft | 473 kts | 130° |
| 2026-04-22 05:17 | 20.33283 | -99.92781 | 31239 ft | 469 kts | 129° |
| 2026-04-22 05:17 | 20.31290 | -99.90040 | 30754 ft | 467 kts | 129° |
| 2026-04-22 05:17 | 20.29308 | -99.87315 | 30231 ft | 465 kts | 129° |
| 2026-04-22 05:18 | 20.25374 | -99.81906 | 29127 ft | 458 kts | 129° |
| 2026-04-22 05:18 | 20.23432 | -99.79240 | 28594 ft | 453 kts | 129° |
| 2026-04-22 05:18 | 20.21526 | -99.76592 | 28130 ft | 448 kts | 126° |
| 2026-04-22 05:19 | 20.20148 | -99.73687 | 28033 ft | 447 kts | 107° |
| 2026-04-22 05:19 | 20.19299 | -99.70562 | 28036 ft | 434 kts | 107° |
| 2026-04-22 05:19 | 20.18419 | -99.67551 | 28010 ft | 418 kts | 108° |
| 2026-04-22 05:19 | 20.17534 | -99.64658 | 27995 ft | 403 kts | 108° |
| 2026-04-22 05:20 | 20.16669 | -99.61881 | 28005 ft | 388 kts | 108° |
| 2026-04-22 05:20 | 20.15831 | -99.59208 | 28007 ft | 374 kts | 108° |
| 2026-04-22 05:20 | 20.15024 | -99.56631 | 28013 ft | 360 kts | 108° |
| 2026-04-22 05:20 | 20.14249 | -99.54152 | 28009 ft | 346 kts | 108° |
| 2026-04-22 05:21 | 20.13516 | -99.51803 | 28002 ft | 333 kts | 108° |
| 2026-04-22 05:21 | 20.12796 | -99.49496 | 28013 ft | 325 kts | 108° |
| 2026-04-22 05:21 | 20.12075 | -99.47186 | 28029 ft | 336 kts | 108° |
| 2026-04-22 05:21 | 20.11323 | -99.44777 | 28060 ft | 350 kts | 108° |
| 2026-04-22 05:22 | 20.10541 | -99.42271 | 28062 ft | 364 kts | 108° |
| 2026-04-22 05:22 | 20.09726 | -99.39659 | 28050 ft | 379 kts | 108° |
| 2026-04-22 05:22 | 20.08878 | -99.36944 | 28041 ft | 394 kts | 108° |
| 2026-04-22 05:22 | 20.07998 | -99.34131 | 28048 ft | 408 kts | 108° |
| 2026-04-22 05:23 | 20.07089 | -99.31222 | 28051 ft | 421 kts | 108° |
| 2026-04-22 05:23 | 20.06150 | -99.28220 | 28049 ft | 433 kts | 108° |
| 2026-04-22 05:23 | 20.05201 | -99.25189 | 28050 ft | 444 kts | 108° |
| 2026-04-22 05:23 | 20.04220 | -99.22057 | 28036 ft | 446 kts | 108° |
| 2026-04-22 05:24 | 20.02272 | -99.15845 | 28097 ft | 441 kts | 108° |
| 2026-04-22 05:24 | 20.00339 | -99.09687 | 28162 ft | 437 kts | 109° |
| 2026-04-22 05:25 | 19.98412 | -99.03564 | 28216 ft | 437 kts | 108° |
| 2026-04-22 05:25 | 19.96510 | -98.97432 | 28248 ft | 437 kts | 105° |
| 2026-04-22 05:26 | 19.95571 | -98.91090 | 28243 ft | 439 kts | 96° |
| 2026-04-22 05:26 | 19.95185 | -98.87890 | 28128 ft | 434 kts | 97° |
| 2026-04-22 05:26 | 19.94749 | -98.84724 | 27601 ft | 433 kts | 99° |
| 2026-04-22 05:27 | 19.94019 | -98.81628 | 26965 ft | 433 kts | 111° |
| 2026-04-22 05:27 | 19.92863 | -98.78679 | 26441 ft | 430 kts | 113° |
| 2026-04-22 05:27 | 19.91716 | -98.75779 | 26227 ft | 419 kts | 112° |
| 2026-04-22 05:27 | 19.90661 | -98.72954 | 26141 ft | 405 kts | 111° |
| 2026-04-22 05:28 | 19.89679 | -98.70240 | 26034 ft | 392 kts | 110° |
| 2026-04-22 05:28 | 19.88649 | -98.67609 | 25935 ft | 380 kts | 117° |
| 2026-04-22 05:28 | 19.87359 | -98.65217 | 25842 ft | 366 kts | 121° |
| 2026-04-22 05:28 | 19.86054 | -98.62945 | 25589 ft | 357 kts | 121° |
| 2026-04-22 05:29 | 19.84795 | -98.60688 | 25140 ft | 354 kts | 120° |
| 2026-04-22 05:29 | 19.83563 | -98.58427 | 24657 ft | 353 kts | 121° |
| 2026-04-22 05:29 | 19.82025 | -98.56429 | 24178 ft | 350 kts | 143° |
| 2026-04-22 05:29 | 19.80060 | -98.54946 | 23816 ft | 344 kts | 144° |
| 2026-04-22 05:30 | 19.78142 | -98.53443 | 23355 ft | 342 kts | 143° |
| 2026-04-22 05:30 | 19.76252 | -98.51922 | 22847 ft | 340 kts | 143° |
| 2026-04-22 05:30 | 19.74405 | -98.50428 | 22354 ft | 338 kts | 143° |
| 2026-04-22 05:30 | 19.72460 | -98.49064 | 21856 ft | 334 kts | 159° |
| 2026-04-22 05:31 | 19.70230 | -98.48434 | 21377 ft | 330 kts | 168° |
| 2026-04-22 05:31 | 19.68004 | -98.47886 | 20948 ft | 327 kts | 167° |
| 2026-04-22 05:31 | 19.65774 | -98.47463 | 20447 ft | 325 kts | 182° |
| 2026-04-22 05:31 | 19.63604 | -98.47994 | 19940 ft | 320 kts | 209° |
| 2026-04-22 05:32 | 19.61858 | -98.49402 | 19509 ft | 314 kts | 231° |
| 2026-04-22 05:32 | 19.60711 | -98.51343 | 19047 ft | 310 kts | 250° |
| 2026-04-22 05:32 | 19.60228 | -98.53520 | 18589 ft | 307 kts | 266° |
| 2026-04-22 05:32 | 19.60108 | -98.55771 | 18138 ft | 305 kts | 269° |
| 2026-04-22 05:33 | 19.60021 | -98.58013 | 17653 ft | 303 kts | 269° |
| 2026-04-22 05:33 | 19.59934 | -98.60241 | 17192 ft | 302 kts | 268° |
| 2026-04-22 05:33 | 19.59842 | -98.62457 | 16740 ft | 299 kts | 268° |
| 2026-04-22 05:33 | 19.59744 | -98.64653 | 16291 ft | 298 kts | 268° |
| 2026-04-22 05:34 | 19.59642 | -98.66838 | 15858 ft | 296 kts | 268° |
| 2026-04-22 05:34 | 19.59538 | -98.69008 | 15427 ft | 294 kts | 268° |
| 2026-04-22 05:34 | 19.59433 | -98.71166 | 15010 ft | 292 kts | 268° |
| 2026-04-22 05:34 | 19.59329 | -98.73271 | 14714 ft | 287 kts | 268° |
| 2026-04-22 05:35 | 19.59227 | -98.75336 | 14619 ft | 273 kts | 268° |
| 2026-04-22 05:35 | 19.59128 | -98.77326 | 14183 ft | 270 kts | 268° |
| 2026-04-22 05:35 | 19.58971 | -98.79287 | 13742 ft | 265 kts | 258° |
| 2026-04-22 05:35 | 19.58179 | -98.81038 | 13189 ft | 264 kts | 237° |
| 2026-04-22 05:36 | 19.57199 | -98.82685 | 12597 ft | 265 kts | 239° |
| 2026-04-22 05:36 | 19.56255 | -98.84361 | 12013 ft | 265 kts | 240° |
| 2026-04-22 05:36 | 19.55319 | -98.86040 | 11438 ft | 264 kts | 240° |
| 2026-04-22 05:36 | 19.54425 | -98.87665 | 11123 ft | 252 kts | 240° |
| 2026-04-22 05:37 | 19.53532 | -98.89273 | 10700 ft | 246 kts | 239° |
| 2026-04-22 05:37 | 19.52690 | -98.90778 | 10391 ft | 226 kts | 239° |
| 2026-04-22 05:37 | 19.51921 | -98.92147 | 10061 ft | 208 kts | 239° |
| 2026-04-22 05:37 | 19.51199 | -98.93432 | 9839 ft | 202 kts | 239° |
| 2026-04-22 05:38 | 19.50482 | -98.94709 | 9629 ft | 199 kts | 239° |
| 2026-04-22 05:38 | 19.49779 | -98.95963 | 9404 ft | 197 kts | 239° |
| 2026-04-22 05:38 | 19.49084 | -98.97202 | 9096 ft | 193 kts | 239° |
| 2026-04-22 05:38 | 19.48429 | -98.98370 | 8801 ft | 180 kts | 239° |
| 2026-04-22 05:39 | 19.47824 | -98.99447 | 8583 ft | 165 kts | 239° |
| 2026-04-22 05:39 | 19.47249 | -99.00473 | 8386 ft | 162 kts | 240° |
| 2026-04-22 05:39 | 19.46669 | -99.01507 | 8147 ft | 163 kts | 240° |
| 2026-04-22 05:39 | 19.46098 | -99.02524 | 7973 ft | 159 kts | 241° |
| 2026-04-22 05:40 | 19.45534 | -99.03532 | 7748 ft | 158 kts | 241° |
| 2026-04-22 05:40 | 19.44986 | -99.04514 | 7526 ft | 150 kts | 241° |
| 2026-04-22 05:40 | 19.44458 | -99.05456 | 7324 ft | 144 kts | 239° |
| 2026-04-22 05:40 | 19.44000 | -99.06271 | 7300 ft | 110 kts | 239° |
| 2026-04-22 05:41 | 19.43690 | -99.06827 | 7302 ft | 68 kts | 239° |
| 2026-04-22 05:41 | 19.43523 | -99.07126 | 7301 ft | 26 kts | 239° |
| 2026-04-22 05:41 | 19.43494 | -99.07177 | 7301 ft | 0 kts | 239° |